首页
METAR-TAF:

METAR-TAF

机场 :

长沙黄花国际机场

长沙, 中华人民共和国

纬度: 28-11N, 经度: 113-13E, 海拔: 66米

当前天气观测

该预报发布于39分钟前的10:00 UTC
风速4节,风向
温度 28°C
湿度 89%
气压 1000 hPa
能见度10公里或以上
多云层高于5000英尺

METAR: ZGHA 191000Z 18002MPS 9999 BKN050 28/26 Q1000 NOSIG

时间: 18:39 (10:39 UTC)

预报

该预报发布于7小时和37分钟前的03:02 UTC
预报有效从19日的 06点(UTC)到 20日的 06点(UTC)
风速8节,风向
能見度: 4000
多云层高于4000英尺
轻雾
短暂存在
从 19日的 08点(UTC)到 19日的 12点(UTC)
少量云层高于3300英尺, 积雨云.
多云层高于4000英尺
雷暴, 雨,

TAF: ZGHA 190302Z 1906/2006 18004MPS 4000 BR BKN040 TX29/1907Z TN24/1922Z TEMPO 1908/1912 TSRA FEW033CB BKN040

超过4000个机场的气象观测和天气预报(METAR&TAF报告)。

可查询的气象台以黄色和红色小点在地图上表示。

将鼠标移到小点上方,可查看气象台名称。

然后点击查看天气观测和预报。

如需切换地图:点击带黑十字的绿色按钮放大地图;点击带横线的绿色按钮缩小地图;或者点击绿色箭头查看邻近地区的地图。


METAR-TAF: